»·PEaware :: N688MA L52-L88

N688MA :: L52-L88

FLIGHT INFORMATION

Flight Status: Arrived
Operator: Privately registered:
United States
More flights under this callsign
Pilot: Scott H. (45431)
Aircraft: CESSNA 172 SKYHAWK
(C172)
More flights by this aircraft type
Origin: L52 Oceano Co
United States
Destination: L88 New Cuyama
United States
More flights between these airports :: More routes between these airports
Route:
File this flight plan on PilotEdge
Remarks:
Altitude:
(Current/Filed)
7,500ft
Speed:
(Current/Filed)
100kts
Departed: 31-Oct-23 05:26 PM
Arrived: 31-Oct-23 06:05 PM
Distance/Time
Traveled:
47nm/0:39
Distance/Time
To Go:
Arrived

Flight Plot

Page will automatically refresh every two minutes.


Map Options




Map Legend


Flown Route
Filed Route
Departure Airport
Arrival Airport
Navaid (VOR, NDB)
Fix

Horizontal Profiles

Position Reports

Time Latitude Longitude Heading Altitude Ground
Speed
31-Oct-23 16:59 35.102162 -120.622338 16 17ft 0kts
31-Oct-23 17:00 35.102162 -120.622338 16 17ft 0kts
31-Oct-23 17:01 35.102162 -120.622338 16 17ft 0kts
31-Oct-23 17:02 35.102162 -120.622338 16 17ft 0kts
31-Oct-23 17:03 35.102162 -120.622338 16 17ft 0kts
31-Oct-23 17:04 35.102162 -120.622338 16 17ft 0kts
31-Oct-23 17:05 35.102162 -120.622338 16 17ft 0kts
31-Oct-23 17:06 35.102162 -120.622338 16 17ft 0kts
31-Oct-23 17:07 35.102162 -120.622338 16 17ft 0kts
31-Oct-23 17:08 35.102162 -120.622338 16 17ft 0kts
31-Oct-23 17:09 35.102162 -120.622338 16 17ft 0kts
31-Oct-23 17:10 35.102162 -120.622338 16 17ft 0kts
31-Oct-23 17:11 35.102162 -120.622338 16 17ft 0kts
31-Oct-23 17:14 35.103183 -120.624264 18 18ft 0kts
31-Oct-23 17:15 35.103183 -120.624264 18 18ft 0kts
31-Oct-23 17:16 35.103183 -120.624264 18 18ft 0kts
31-Oct-23 17:17 35.103161 -120.624273 18 18ft 0kts
31-Oct-23 17:18 35.103161 -120.624273 18 18ft 0kts
31-Oct-23 17:19 35.103161 -120.624273 18 18ft 0kts
31-Oct-23 17:20 35.103161 -120.624273 18 18ft 0kts
31-Oct-23 17:21 35.103012 -120.623820 165 19ft 7kts
31-Oct-23 17:22 35.101541 -120.623288 124 20ft 13kts
31-Oct-23 17:23 35.100016 -120.620439 124 17ft 9kts
31-Oct-23 17:24 35.099778 -120.619310 9 16ft 9kts
31-Oct-23 17:25 35.103204 -120.638827 240 477ft 83kts
31-Oct-23 17:26 35.092671 -120.646456 50 1370ft 81kts
31-Oct-23 17:27 35.085113 -120.621926 117 2184ft 83kts
31-Oct-23 17:28 35.074760 -120.596380 117 2949ft 84kts
31-Oct-23 17:29 35.073455 -120.570674 58 3763ft 85kts
31-Oct-23 17:30 35.085863 -120.545837 66 4507ft 86kts
31-Oct-23 17:31 35.082732 -120.516723 101 5186ft 87kts
31-Oct-23 17:32 35.077944 -120.487432 102 5838ft 88kts
31-Oct-23 17:33 35.072967 -120.457858 102 6450ft 89kts
31-Oct-23 17:34 35.068042 -120.427870 88 6984ft 90kts
31-Oct-23 17:35 35.064364 -120.406693 144 7406ft 89kts
31-Oct-23 17:36 35.058746 -120.377481 101 7787ft 91kts
31-Oct-23 17:37 35.053808 -120.346942 102 8120ft 92kts
31-Oct-23 17:38 35.047455 -120.309980 102 7710ft 135kts
31-Oct-23 17:39 35.040203 -120.267251 102 7489ft 114kts
31-Oct-23 17:40 35.033850 -120.229618 102 7490ft 112kts
31-Oct-23 17:41 35.027340 -120.191378 102 7500ft 115kts
31-Oct-23 17:42 35.025808 -120.153041 74 7491ft 115kts
31-Oct-23 17:43 35.026932 -120.115015 102 7496ft 115kts
31-Oct-23 17:44 35.021117 -120.076384 101 7498ft 116kts
31-Oct-23 17:45 35.015343 -120.037871 101 7499ft 116kts
31-Oct-23 17:46 35.009489 -119.998793 101 7502ft 116kts
31-Oct-23 17:47 34.996747 -119.964842 139 7504ft 113kts
31-Oct-23 17:48 34.970367 -119.936013 139 6681ft 135kts
31-Oct-23 17:49 34.947717 -119.901985 117 6089ft 122kts
31-Oct-23 17:50 34.935708 -119.865270 111 5753ft 114kts
31-Oct-23 17:51 34.925688 -119.828189 103 5339ft 115kts
31-Oct-23 17:52 34.919794 -119.790188 101 4764ft 111kts
31-Oct-23 17:53 34.914212 -119.754369 102 4144ft 106kts
31-Oct-23 17:54 34.908674 -119.723203 102 3887ft 79kts
31-Oct-23 17:55 34.903719 -119.697926 104 3909ft 82kts
31-Oct-23 17:56 34.908406 -119.679707 323 3940ft 84kts
31-Oct-23 17:57 34.930082 -119.697785 301 3281ft 103kts
31-Oct-23 17:58 34.941163 -119.722614 297 3187ft 70kts
31-Oct-23 17:59 34.950486 -119.743919 297 3197ft 73kts
31-Oct-23 18:00 34.962088 -119.763074 27 3206ft 76kts
31-Oct-23 18:01 34.960942 -119.737973 116 3017ft 82kts
31-Oct-23 18:02 34.951763 -119.714644 117 2599ft 70kts
31-Oct-23 18:03 34.943254 -119.693623 118 2221ft 68kts
31-Oct-23 18:04 34.940383 -119.686542 297 2171ft 10kts
31-Oct-23 18:06 34.942499 -119.690835 4 2152ft 7kts
31-Oct-23 18:07 34.942611 -119.690262 110 2153ft 0kts
31-Oct-23 18:08 34.942611 -119.690262 110 2153ft 0kts
31-Oct-23 18:09 34.942611 -119.690262 110 2153ft 0kts

Navigation Log

Ident Type
Flight plan parsing failed, navigation log unavailable